sensor_id;sensor_type;location;lat;lon;timestamp;temperature;humidity
66144;SHT31;52947;50.842;6.084;2023-08-06T00:02:06;14.44;93.16
66144;SHT31;52947;50.842;6.084;2023-08-06T00:04:34;14.38;93.48
66144;SHT31;52947;50.842;6.084;2023-08-06T00:07:03;14.26;93.78
66144;SHT31;52947;50.842;6.084;2023-08-06T00:09:31;14.28;93.92
66144;SHT31;52947;50.842;6.084;2023-08-06T00:12:00;14.34;93.73
66144;SHT31;52947;50.842;6.084;2023-08-06T00:14:28;14.35;93.70
66144;SHT31;52947;50.842;6.084;2023-08-06T00:16:56;14.34;93.71
66144;SHT31;52947;50.842;6.084;2023-08-06T00:19:24;14.34;93.74
66144;SHT31;52947;50.842;6.084;2023-08-06T00:21:52;14.31;93.84
66144;SHT31;52947;50.842;6.084;2023-08-06T00:24:20;14.22;93.93
66144;SHT31;52947;50.842;6.084;2023-08-06T00:26:50;14.31;93.74
66144;SHT31;52947;50.842;6.084;2023-08-06T00:29:19;14.31;93.58
66144;SHT31;52947;50.842;6.084;2023-08-06T00:31:47;14.17;93.60
66144;SHT31;52947;50.842;6.084;2023-08-06T00:34:15;14.17;93.70
66144;SHT31;52947;50.842;6.084;2023-08-06T00:36:43;14.10;93.93
66144;SHT31;52947;50.842;6.084;2023-08-06T00:39:11;14.08;93.88
66144;SHT31;52947;50.842;6.084;2023-08-06T00:41:39;14.08;94.00
66144;SHT31;52947;50.842;6.084;2023-08-06T00:44:07;14.13;93.82
66144;SHT31;52947;50.842;6.084;2023-08-06T00:46:37;14.08;93.64
66144;SHT31;52947;50.842;6.084;2023-08-06T00:49:05;14.01;93.79
66144;SHT31;52947;50.842;6.084;2023-08-06T00:51:33;14.18;96.02
66144;SHT31;52947;50.842;6.084;2023-08-06T00:54:03;14.45;95.80
66144;SHT31;52947;50.842;6.084;2023-08-06T00:56:32;14.66;93.67
66144;SHT31;52947;50.842;6.084;2023-08-06T00:59:03;14.72;94.15
66144;SHT31;52947;50.842;6.084;2023-08-06T01:01:31;14.71;94.43
66144;SHT31;52947;50.842;6.084;2023-08-06T01:04:00;14.82;93.97
66144;SHT31;52947;50.842;6.084;2023-08-06T01:06:35;14.92;94.62
66144;SHT31;52947;50.842;6.084;2023-08-06T01:09:15;14.89;92.53
66144;SHT31;52947;50.842;6.084;2023-08-06T01:11:57;14.95;92.39
66144;SHT31;52947;50.842;6.084;2023-08-06T01:14:30;15.06;92.25
66144;SHT31;52947;50.842;6.084;2023-08-06T01:16:59;15.27;91.30
66144;SHT31;52947;50.842;6.084;2023-08-06T01:19:29;15.22;91.34
66144;SHT31;52947;50.842;6.084;2023-08-06T01:21:58;15.14;90.31
66144;SHT31;52947;50.842;6.084;2023-08-06T01:24:26;14.92;90.57
66144;SHT31;52947;50.842;6.084;2023-08-06T01:26:59;14.76;91.08
66144;SHT31;52947;50.842;6.084;2023-08-06T01:29:34;14.58;91.84
66144;SHT31;52947;50.842;6.084;2023-08-06T01:32:03;14.45;91.98
66144;SHT31;52947;50.842;6.084;2023-08-06T01:34:33;14.45;92.54
66144;SHT31;52947;50.842;6.084;2023-08-06T01:37:03;14.36;92.76
66144;SHT31;52947;50.842;6.084;2023-08-06T01:39:34;14.44;92.64
66144;SHT31;52947;50.842;6.084;2023-08-06T01:42:03;14.34;92.80
66144;SHT31;52947;50.842;6.084;2023-08-06T01:44:31;14.39;92.84
66144;SHT31;52947;50.842;6.084;2023-08-06T01:46:59;14.38;92.75
66144;SHT31;52947;50.842;6.084;2023-08-06T01:49:27;14.35;93.02
66144;SHT31;52947;50.842;6.084;2023-08-06T01:51:55;14.34;92.85
66144;SHT31;52947;50.842;6.084;2023-08-06T01:54:25;14.38;92.85
66144;SHT31;52947;50.842;6.084;2023-08-06T01:56:52;14.36;92.77
66144;SHT31;52947;50.842;6.084;2023-08-06T01:59:21;14.38;93.01
66144;SHT31;52947;50.842;6.084;2023-08-06T02:01:48;14.32;93.10
66144;SHT31;52947;50.842;6.084;2023-08-06T02:04:17;14.31;92.97
66144;SHT31;52947;50.842;6.084;2023-08-06T02:06:45;14.35;92.99
66144;SHT31;52947;50.842;6.084;2023-08-06T02:09:13;14.36;93.02
66144;SHT31;52947;50.842;6.084;2023-08-06T02:11:42;14.38;92.97
66144;SHT31;52947;50.842;6.084;2023-08-06T02:14:10;14.41;92.55
66144;SHT31;52947;50.842;6.084;2023-08-06T02:16:38;14.38;92.78
66144;SHT31;52947;50.842;6.084;2023-08-06T02:19:06;14.44;92.64
66144;SHT31;52947;50.842;6.084;2023-08-06T02:21:34;14.35;93.01
66144;SHT31;52947;50.842;6.084;2023-08-06T02:24:03;14.38;92.88
66144;SHT31;52947;50.842;6.084;2023-08-06T02:26:31;14.39;92.92
66144;SHT31;52947;50.842;6.084;2023-08-06T02:29:00;14.42;92.64
66144;SHT31;52947;50.842;6.084;2023-08-06T02:31:28;14.41;92.77
66144;SHT31;52947;50.842;6.084;2023-08-06T02:33:57;14.41;92.96
66144;SHT31;52947;50.842;6.084;2023-08-06T02:36:25;14.36;93.06
66144;SHT31;52947;50.842;6.084;2023-08-06T02:38:58;14.29;93.58
66144;SHT31;52947;50.842;6.084;2023-08-06T02:41:26;14.20;93.86
66144;SHT31;52947;50.842;6.084;2023-08-06T02:43:56;14.15;94.52
66144;SHT31;52947;50.842;6.084;2023-08-06T02:46:25;14.20;94.30
66144;SHT31;52947;50.842;6.084;2023-08-06T02:48:53;14.07;95.15
66144;SHT31;52947;50.842;6.084;2023-08-06T02:51:21;14.17;95.73
66144;SHT31;52947;50.842;6.084;2023-08-06T02:53:49;14.35;96.21
66144;SHT31;52947;50.842;6.084;2023-08-06T02:56:19;14.73;95.80
66144;SHT31;52947;50.842;6.084;2023-08-06T02:59:14;14.87;95.38
66144;SHT31;52947;50.842;6.084;2023-08-06T03:01:53;14.95;95.03
66144;SHT31;52947;50.842;6.084;2023-08-06T03:04:29;14.99;94.72
66144;SHT31;52947;50.842;6.084;2023-08-06T03:06:57;15.11;93.60
66144;SHT31;52947;50.842;6.084;2023-08-06T03:09:32;15.34;93.75
66144;SHT31;52947;50.842;6.084;2023-08-06T03:12:01;15.07;92.53
66144;SHT31;52947;50.842;6.084;2023-08-06T03:14:29;14.89;92.92
66144;SHT31;52947;50.842;6.084;2023-08-06T03:16:59;14.72;93.82
66144;SHT31;52947;50.842;6.084;2023-08-06T03:19:27;14.66;93.68
66144;SHT31;52947;50.842;6.084;2023-08-06T03:21:56;14.68;94.07
66144;SHT31;52947;50.842;6.084;2023-08-06T03:24:24;14.59;94.38
66144;SHT31;52947;50.842;6.084;2023-08-06T03:26:52;14.51;94.64
66144;SHT31;52947;50.842;6.084;2023-08-06T03:29:20;14.51;94.52
66144;SHT31;52947;50.842;6.084;2023-08-06T03:31:50;14.49;94.48
66144;SHT31;52947;50.842;6.084;2023-08-06T03:34:21;14.46;94.76
66144;SHT31;52947;50.842;6.084;2023-08-06T03:36:50;14.46;95.65
66144;SHT31;52947;50.842;6.084;2023-08-06T03:39:18;14.55;95.06
66144;SHT31;52947;50.842;6.084;2023-08-06T03:41:46;14.49;94.90
66144;SHT31;52947;50.842;6.084;2023-08-06T03:44:14;14.56;95.20
66144;SHT31;52947;50.842;6.084;2023-08-06T03:46:43;14.58;95.42
66144;SHT31;52947;50.842;6.084;2023-08-06T03:49:11;14.55;95.12
66144;SHT31;52947;50.842;6.084;2023-08-06T03:51:41;14.51;95.58
66144;SHT31;52947;50.842;6.084;2023-08-06T03:54:09;14.55;95.59
66144;SHT31;52947;50.842;6.084;2023-08-06T03:56:37;14.54;95.47
66144;SHT31;52947;50.842;6.084;2023-08-06T03:59:05;14.56;95.83
66144;SHT31;52947;50.842;6.084;2023-08-06T04:01:33;14.62;96.03
66144;SHT31;52947;50.842;6.084;2023-08-06T04:04:02;14.61;95.34
66144;SHT31;52947;50.842;6.084;2023-08-06T04:06:30;14.56;95.42
66144;SHT31;52947;50.842;6.084;2023-08-06T04:08:59;14.58;95.79
66144;SHT31;52947;50.842;6.084;2023-08-06T04:11:27;14.56;95.57
66144;SHT31;52947;50.842;6.084;2023-08-06T04:13:55;14.52;96.11
66144;SHT31;52947;50.842;6.084;2023-08-06T04:16:23;14.89;98.09
66144;SHT31;52947;50.842;6.084;2023-08-06T04:18:54;15.17;96.16
66144;SHT31;52947;50.842;6.084;2023-08-06T04:21:22;15.41;95.01
66144;SHT31;52947;50.842;6.084;2023-08-06T04:23:50;15.68;93.73
66144;SHT31;52947;50.842;6.084;2023-08-06T04:26:20;15.69;92.83
66144;SHT31;52947;50.842;6.084;2023-08-06T04:28:48;15.68;92.69
66144;SHT31;52947;50.842;6.084;2023-08-06T04:31:16;15.43;93.02
66144;SHT31;52947;50.842;6.084;2023-08-06T04:33:44;15.31;93.86
66144;SHT31;52947;50.842;6.084;2023-08-06T04:36:14;15.07;93.99
66144;SHT31;52947;50.842;6.084;2023-08-06T04:38:42;14.96;94.41
66144;SHT31;52947;50.842;6.084;2023-08-06T04:41:13;14.90;94.98
66144;SHT31;52947;50.842;6.084;2023-08-06T04:43:43;14.79;94.48
66144;SHT31;52947;50.842;6.084;2023-08-06T04:46:11;14.86;95.01
66144;SHT31;52947;50.842;6.084;2023-08-06T04:48:39;14.82;94.69
66144;SHT31;52947;50.842;6.084;2023-08-06T04:51:07;14.75;95.15
66144;SHT31;52947;50.842;6.084;2023-08-06T04:53:35;14.79;95.10
66144;SHT31;52947;50.842;6.084;2023-08-06T04:56:04;14.65;95.57
66144;SHT31;52947;50.842;6.084;2023-08-06T04:58:32;14.52;95.74
66144;SHT31;52947;50.842;6.084;2023-08-06T05:01:01;14.66;95.42
66144;SHT31;52947;50.842;6.084;2023-08-06T05:03:29;14.86;95.70
66144;SHT31;52947;50.842;6.084;2023-08-06T05:05:57;14.85;94.29
66144;SHT31;52947;50.842;6.084;2023-08-06T05:08:25;14.99;95.17
66144;SHT31;52947;50.842;6.084;2023-08-06T05:10:53;15.20;94.68
66144;SHT31;52947;50.842;6.084;2023-08-06T05:13:21;15.13;94.83
66144;SHT31;52947;50.842;6.084;2023-08-06T05:15:49;15.26;93.66
66144;SHT31;52947;50.842;6.084;2023-08-06T05:18:18;15.19;94.52
66144;SHT31;52947;50.842;6.084;2023-08-06T05:20:46;15.13;94.19
66144;SHT31;52947;50.842;6.084;2023-08-06T05:23:14;15.17;93.71
66144;SHT31;52947;50.842;6.084;2023-08-06T05:25:42;15.30;94.07
66144;SHT31;52947;50.842;6.084;2023-08-06T05:28:10;15.11;93.36
66144;SHT31;52947;50.842;6.084;2023-08-06T05:30:39;15.08;93.82
66144;SHT31;52947;50.842;6.084;2023-08-06T05:33:07;14.92;94.44
66144;SHT31;52947;50.842;6.084;2023-08-06T05:35:36;14.85;94.58
66144;SHT31;52947;50.842;6.084;2023-08-06T05:38:04;14.86;94.90
66144;SHT31;52947;50.842;6.084;2023-08-06T05:40:33;14.92;94.67
66144;SHT31;52947;50.842;6.084;2023-08-06T05:43:01;15.08;94.86
66144;SHT31;52947;50.842;6.084;2023-08-06T05:45:28;15.13;94.29
66144;SHT31;52947;50.842;6.084;2023-08-06T05:47:56;15.11;94.24
66144;SHT31;52947;50.842;6.084;2023-08-06T05:50:25;15.04;94.91
66144;SHT31;52947;50.842;6.084;2023-08-06T05:52:54;14.96;94.94
66144;SHT31;52947;50.842;6.084;2023-08-06T05:55:26;15.02;94.55
66144;SHT31;52947;50.842;6.084;2023-08-06T05:57:54;15.11;94.46
66144;SHT31;52947;50.842;6.084;2023-08-06T06:00:22;15.14;94.33
66144;SHT31;52947;50.842;6.084;2023-08-06T06:02:50;15.11;94.72
66144;SHT31;52947;50.842;6.084;2023-08-06T06:05:18;15.14;94.75
66144;SHT31;52947;50.842;6.084;2023-08-06T06:07:46;15.24;94.81
66144;SHT31;52947;50.842;6.084;2023-08-06T06:10:16;15.22;94.33
66144;SHT31;52947;50.842;6.084;2023-08-06T06:12:44;15.28;94.14
66144;SHT31;52947;50.842;6.084;2023-08-06T06:15:11;15.36;94.29
66144;SHT31;52947;50.842;6.084;2023-08-06T06:17:39;15.54;93.92
66144;SHT31;52947;50.842;6.084;2023-08-06T06:20:08;15.59;92.91
66144;SHT31;52947;50.842;6.084;2023-08-06T06:22:36;15.75;93.28
66144;SHT31;52947;50.842;6.084;2023-08-06T06:25:05;15.91;92.29
66144;SHT31;52947;50.842;6.084;2023-08-06T06:27:34;15.94;92.50
66144;SHT31;52947;50.842;6.084;2023-08-06T06:30:03;16.12;92.19
66144;SHT31;52947;50.842;6.084;2023-08-06T06:32:31;16.28;92.31
66144;SHT31;52947;50.842;6.084;2023-08-06T06:34:59;15.94;92.07
66144;SHT31;52947;50.842;6.084;2023-08-06T06:37:26;15.85;93.31
66144;SHT31;52947;50.842;6.084;2023-08-06T06:39:55;15.65;93.00
66144;SHT31;52947;50.842;6.084;2023-08-06T06:42:23;15.61;93.40
66144;SHT31;52947;50.842;6.084;2023-08-06T06:44:58;15.65;93.41
66144;SHT31;52947;50.842;6.084;2023-08-06T06:47:26;15.81;93.84
66144;SHT31;52947;50.842;6.084;2023-08-06T06:49:54;15.58;93.66
66144;SHT31;52947;50.842;6.084;2023-08-06T06:52:22;15.58;94.10
66144;SHT31;52947;50.842;6.084;2023-08-06T06:54:50;15.75;94.43
66144;SHT31;52947;50.842;6.084;2023-08-06T06:57:18;16.26;92.89
66144;SHT31;52947;50.842;6.084;2023-08-06T06:59:45;16.36;91.87
66144;SHT31;52947;50.842;6.084;2023-08-06T07:02:15;16.53;91.87
66144;SHT31;52947;50.842;6.084;2023-08-06T07:04:43;16.88;91.02
66144;SHT31;52947;50.842;6.084;2023-08-06T07:07:11;16.66;90.75
66144;SHT31;52947;50.842;6.084;2023-08-06T07:09:39;16.83;90.78
66144;SHT31;52947;50.842;6.084;2023-08-06T07:12:07;16.80;90.13
66144;SHT31;52947;50.842;6.084;2023-08-06T07:14:35;17.10;90.06
66144;SHT31;52947;50.842;6.084;2023-08-06T07:17:03;17.18;90.02
66144;SHT31;52947;50.842;6.084;2023-08-06T07:19:33;16.88;89.81
66144;SHT31;52947;50.842;6.084;2023-08-06T07:22:01;16.67;91.36
66144;SHT31;52947;50.842;6.084;2023-08-06T07:24:29;16.40;91.62
66144;SHT31;52947;50.842;6.084;2023-08-06T07:26:57;16.20;91.71
66144;SHT31;52947;50.842;6.084;2023-08-06T07:29:24;16.39;92.15
66144;SHT31;52947;50.842;6.084;2023-08-06T07:31:52;16.61;90.77
66144;SHT31;52947;50.842;6.084;2023-08-06T07:34:22;16.56;90.64
66144;SHT31;52947;50.842;6.084;2023-08-06T07:36:51;16.32;91.21
66144;SHT31;52947;50.842;6.084;2023-08-06T07:39:19;16.23;90.98
66144;SHT31;52947;50.842;6.084;2023-08-06T07:41:47;16.08;91.30
66144;SHT31;52947;50.842;6.084;2023-08-06T07:44:15;16.04;92.16
66144;SHT31;52947;50.842;6.084;2023-08-06T07:46:43;16.10;91.87
66144;SHT31;52947;50.842;6.084;2023-08-06T07:49:11;15.91;92.08
66144;SHT31;52947;50.842;6.084;2023-08-06T07:51:38;15.72;92.25
66144;SHT31;52947;50.842;6.084;2023-08-06T07:54:08;15.68;92.36
66144;SHT31;52947;50.842;6.084;2023-08-06T07:56:36;15.28;92.43
66144;SHT31;52947;50.842;6.084;2023-08-06T07:59:04;15.46;92.93
66144;SHT31;52947;50.842;6.084;2023-08-06T08:01:32;15.41;92.23
66144;SHT31;52947;50.842;6.084;2023-08-06T08:04:00;15.03;92.88
66144;SHT31;52947;50.842;6.084;2023-08-06T08:06:28;15.03;93.46
66144;SHT31;52947;50.842;6.084;2023-08-06T08:08:55;14.93;93.24
66144;SHT31;52947;50.842;6.084;2023-08-06T08:11:25;14.87;93.86
66144;SHT31;52947;50.842;6.084;2023-08-06T08:13:53;14.86;93.90
66144;SHT31;52947;50.842;6.084;2023-08-06T08:16:21;15.00;93.46
66144;SHT31;52947;50.842;6.084;2023-08-06T08:18:49;14.95;93.46
66144;SHT31;52947;50.842;6.084;2023-08-06T08:21:17;14.86;93.67
66144;SHT31;52947;50.842;6.084;2023-08-06T08:23:45;14.95;93.58
66144;SHT31;52947;50.842;6.084;2023-08-06T08:26:13;15.02;93.45
66144;SHT31;52947;50.842;6.084;2023-08-06T08:28:42;14.72;93.58
66144;SHT31;52947;50.842;6.084;2023-08-06T08:31:10;14.77;93.93
66144;SHT31;52947;50.842;6.084;2023-08-06T08:33:38;14.99;93.69
66144;SHT31;52947;50.842;6.084;2023-08-06T08:36:06;14.93;93.45
66144;SHT31;52947;50.842;6.084;2023-08-06T08:38:36;15.00;92.61
66144;SHT31;52947;50.842;6.084;2023-08-06T08:41:04;14.96;92.84
66144;SHT31;52947;50.842;6.084;2023-08-06T08:43:32;14.99;93.65
66144;SHT31;52947;50.842;6.084;2023-08-06T08:46:04;14.97;93.21
66144;SHT31;52947;50.842;6.084;2023-08-06T08:48:33;14.89;93.14
66144;SHT31;52947;50.842;6.084;2023-08-06T08:51:02;14.92;92.79
66144;SHT31;52947;50.842;6.084;2023-08-06T08:53:31;14.96;92.83
66144;SHT31;52947;50.842;6.084;2023-08-06T08:55:59;14.89;92.57
66144;SHT31;52947;50.842;6.084;2023-08-06T08:58:27;14.71;92.23
66144;SHT31;52947;50.842;6.084;2023-08-06T09:00:56;14.77;92.27
66144;SHT31;52947;50.842;6.084;2023-08-06T09:03:26;14.76;91.96
66144;SHT31;52947;50.842;6.084;2023-08-06T09:05:55;14.80;91.81
66144;SHT31;52947;50.842;6.084;2023-08-06T09:08:27;14.77;92.57
66144;SHT31;52947;50.842;6.084;2023-08-06T09:10:58;14.36;91.93
66144;SHT31;52947;50.842;6.084;2023-08-06T09:13:26;14.08;93.26
66144;SHT31;52947;50.842;6.084;2023-08-06T09:15:54;13.90;93.97
66144;SHT31;52947;50.842;6.084;2023-08-06T09:18:27;13.88;94.46
66144;SHT31;52947;50.842;6.084;2023-08-06T09:20:57;13.84;94.64
66144;SHT31;52947;50.842;6.084;2023-08-06T09:23:27;13.80;94.82
66144;SHT31;52947;50.842;6.084;2023-08-06T09:25:57;13.80;94.79
66144;SHT31;52947;50.842;6.084;2023-08-06T09:28:36;13.83;95.42
66144;SHT31;52947;50.842;6.084;2023-08-06T09:31:04;13.87;94.93
66144;SHT31;52947;50.842;6.084;2023-08-06T09:33:36;14.01;94.15
66144;SHT31;52947;50.842;6.084;2023-08-06T09:36:07;14.03;93.01
66144;SHT31;52947;50.842;6.084;2023-08-06T09:38:39;14.03;92.62
66144;SHT31;52947;50.842;6.084;2023-08-06T09:41:08;14.07;92.81
66144;SHT31;52947;50.842;6.084;2023-08-06T09:43:40;14.24;93.02
66144;SHT31;52947;50.842;6.084;2023-08-06T09:46:12;14.24;92.80
66144;SHT31;52947;50.842;6.084;2023-08-06T09:48:46;14.17;92.96
66144;SHT31;52947;50.842;6.084;2023-08-06T09:51:14;14.26;92.91
66144;SHT31;52947;50.842;6.084;2023-08-06T09:53:42;14.34;93.67
66144;SHT31;52947;50.842;6.084;2023-08-06T09:56:13;14.38;93.13
66144;SHT31;52947;50.842;6.084;2023-08-06T09:58:42;14.36;93.38
66144;SHT31;52947;50.842;6.084;2023-08-06T10:01:11;14.34;93.77
66144;SHT31;52947;50.842;6.084;2023-08-06T10:03:40;14.32;93.63
66144;SHT31;52947;50.842;6.084;2023-08-06T10:06:10;14.25;94.02
66144;SHT31;52947;50.842;6.084;2023-08-06T10:08:38;14.24;94.73
66144;SHT31;52947;50.842;6.084;2023-08-06T10:11:09;14.20;94.31
66144;SHT31;52947;50.842;6.084;2023-08-06T10:13:37;14.21;94.35
66144;SHT31;52947;50.842;6.084;2023-08-06T10:16:06;14.25;94.41
66144;SHT31;52947;50.842;6.084;2023-08-06T10:18:36;14.28;94.55
66144;SHT31;52947;50.842;6.084;2023-08-06T10:21:09;14.28;94.86
66144;SHT31;52947;50.842;6.084;2023-08-06T10:23:37;14.22;95.22
66144;SHT31;52947;50.842;6.084;2023-08-06T10:26:08;14.18;94.97
66144;SHT31;52947;50.842;6.084;2023-08-06T10:28:37;14.24;94.93
66144;SHT31;52947;50.842;6.084;2023-08-06T10:31:05;14.25;94.83
66144;SHT31;52947;50.842;6.084;2023-08-06T10:33:43;14.35;95.14
66144;SHT31;52947;50.842;6.084;2023-08-06T10:36:14;14.39;95.22
66144;SHT31;52947;50.842;6.084;2023-08-06T10:38:46;14.48;95.03
66144;SHT31;52947;50.842;6.084;2023-08-06T10:41:22;14.58;94.89
66144;SHT31;52947;50.842;6.084;2023-08-06T10:43:51;14.65;94.61
66144;SHT31;52947;50.842;6.084;2023-08-06T10:46:23;14.56;95.04
66144;SHT31;52947;50.842;6.084;2023-08-06T10:48:54;14.56;94.85
66144;SHT31;52947;50.842;6.084;2023-08-06T10:51:23;14.62;94.86
66144;SHT31;52947;50.842;6.084;2023-08-06T10:53:51;14.69;94.48
66144;SHT31;52947;50.842;6.084;2023-08-06T10:56:20;14.79;94.53
66144;SHT31;52947;50.842;6.084;2023-08-06T10:58:50;14.79;94.27
66144;SHT31;52947;50.842;6.084;2023-08-06T11:01:19;14.96;94.16
66144;SHT31;52947;50.842;6.084;2023-08-06T11:03:48;14.95;93.73
66144;SHT31;52947;50.842;6.084;2023-08-06T11:06:18;14.89;93.96
66144;SHT31;52947;50.842;6.084;2023-08-06T11:08:52;14.73;93.66
66144;SHT31;52947;50.842;6.084;2023-08-06T11:11:22;14.64;94.17
66144;SHT31;52947;50.842;6.084;2023-08-06T11:13:51;14.66;94.41
66144;SHT31;52947;50.842;6.084;2023-08-06T11:16:21;14.69;94.32
66144;SHT31;52947;50.842;6.084;2023-08-06T11:18:51;14.72;94.34
66144;SHT31;52947;50.842;6.084;2023-08-06T11:21:21;14.66;94.84
66144;SHT31;52947;50.842;6.084;2023-08-06T11:23:50;14.55;94.95
66144;SHT31;52947;50.842;6.084;2023-08-06T11:26:19;14.51;95.09
66144;SHT31;52947;50.842;6.084;2023-08-06T11:28:47;14.51;94.84
66144;SHT31;52947;50.842;6.084;2023-08-06T11:31:19;14.58;94.86
66144;SHT31;52947;50.842;6.084;2023-08-06T11:33:47;14.58;94.94
66144;SHT31;52947;50.842;6.084;2023-08-06T11:36:15;14.58;95.13
66144;SHT31;52947;50.842;6.084;2023-08-06T11:38:43;14.64;95.19
66144;SHT31;52947;50.842;6.084;2023-08-06T11:41:13;14.59;94.84
66144;SHT31;52947;50.842;6.084;2023-08-06T11:43:41;14.61;95.12
66144;SHT31;52947;50.842;6.084;2023-08-06T11:46:13;14.48;95.16
66144;SHT31;52947;50.842;6.084;2023-08-06T11:48:51;14.45;95.28
66144;SHT31;52947;50.842;6.084;2023-08-06T11:51:22;14.31;95.58
66144;SHT31;52947;50.842;6.084;2023-08-06T11:53:51;14.31;95.95
66144;SHT31;52947;50.842;6.084;2023-08-06T11:56:20;14.31;95.99
66144;SHT31;52947;50.842;6.084;2023-08-06T11:58:48;14.28;95.78
66144;SHT31;52947;50.842;6.084;2023-08-06T12:01:16;14.25;96.09
66144;SHT31;52947;50.842;6.084;2023-08-06T12:03:44;14.31;96.08
66144;SHT31;52947;50.842;6.084;2023-08-06T12:06:12;14.36;95.47
66144;SHT31;52947;50.842;6.084;2023-08-06T12:08:40;14.38;95.19
66144;SHT31;52947;50.842;6.084;2023-08-06T12:11:09;14.62;94.95
66144;SHT31;52947;50.842;6.084;2023-08-06T12:13:38;14.68;94.70
66144;SHT31;52947;50.842;6.084;2023-08-06T12:16:05;14.92;94.46
66144;SHT31;52947;50.842;6.084;2023-08-06T12:18:33;15.08;94.34
66144;SHT31;52947;50.842;6.084;2023-08-06T12:21:02;15.26;94.02
66144;SHT31;52947;50.842;6.084;2023-08-06T12:23:30;15.27;93.77
66144;SHT31;52947;50.842;6.084;2023-08-06T12:25:59;15.24;93.47
66144;SHT31;52947;50.842;6.084;2023-08-06T12:28:27;15.19;94.12
66144;SHT31;52947;50.842;6.084;2023-08-06T12:30:57;15.19;93.74
66144;SHT31;52947;50.842;6.084;2023-08-06T12:33:24;15.30;94.01
66144;SHT31;52947;50.842;6.084;2023-08-06T12:35:52;15.28;92.93
66144;SHT31;52947;50.842;6.084;2023-08-06T12:38:21;15.44;92.89
66144;SHT31;52947;50.842;6.084;2023-08-06T12:40:49;15.36;92.93
66144;SHT31;52947;50.842;6.084;2023-08-06T12:43:17;15.11;93.16
66144;SHT31;52947;50.842;6.084;2023-08-06T12:45:45;15.06;93.27
66144;SHT31;52947;50.842;6.084;2023-08-06T12:48:16;15.06;93.14
66144;SHT31;52947;50.842;6.084;2023-08-06T12:50:45;15.04;93.15
66144;SHT31;52947;50.842;6.084;2023-08-06T12:53:13;15.07;92.98
66144;SHT31;52947;50.842;6.084;2023-08-06T12:55:41;14.99;93.01
66144;SHT31;52947;50.842;6.084;2023-08-06T12:58:09;15.00;92.92
66144;SHT31;52947;50.842;6.084;2023-08-06T13:00:37;15.03;93.47
66144;SHT31;52947;50.842;6.084;2023-08-06T13:03:05;15.07;93.01
66144;SHT31;52947;50.842;6.084;2023-08-06T13:05:35;15.11;92.77
66144;SHT31;52947;50.842;6.084;2023-08-06T13:08:03;15.10;93.07
66144;SHT31;52947;50.842;6.084;2023-08-06T13:10:31;15.04;93.26
66144;SHT31;52947;50.842;6.084;2023-08-06T13:12:59;14.83;93.13
66144;SHT31;52947;50.842;6.084;2023-08-06T13:15:27;14.71;93.67
66144;SHT31;52947;50.842;6.084;2023-08-06T13:17:55;14.77;93.70
66144;SHT31;52947;50.842;6.084;2023-08-06T13:20:23;14.87;93.35
66144;SHT31;52947;50.842;6.084;2023-08-06T13:22:54;15.00;93.19
66144;SHT31;52947;50.842;6.084;2023-08-06T13:25:22;15.10;93.04
66144;SHT31;52947;50.842;6.084;2023-08-06T13:27:50;15.13;93.08
66144;SHT31;52947;50.842;6.084;2023-08-06T13:30:18;14.97;93.24
66144;SHT31;52947;50.842;6.084;2023-08-06T13:32:46;14.89;93.46
66144;SHT31;52947;50.842;6.084;2023-08-06T13:35:14;14.82;94.04
66144;SHT31;52947;50.842;6.084;2023-08-06T13:37:42;14.87;94.32
66144;SHT31;52947;50.842;6.084;2023-08-06T13:40:11;14.76;94.57
66144;SHT31;52947;50.842;6.084;2023-08-06T13:42:39;14.82;94.84
66144;SHT31;52947;50.842;6.084;2023-08-06T13:45:08;14.69;94.34
66144;SHT31;52947;50.842;6.084;2023-08-06T13:47:36;14.52;94.75
66144;SHT31;52947;50.842;6.084;2023-08-06T13:50:04;14.52;94.86
66144;SHT31;52947;50.842;6.084;2023-08-06T13:52:33;14.38;95.05
66144;SHT31;52947;50.842;6.084;2023-08-06T13:55:02;14.26;95.53
66144;SHT31;52947;50.842;6.084;2023-08-06T13:57:32;14.29;95.71
66144;SHT31;52947;50.842;6.084;2023-08-06T14:00:00;14.24;95.51
66144;SHT31;52947;50.842;6.084;2023-08-06T14:02:38;14.28;95.70
66144;SHT31;52947;50.842;6.084;2023-08-06T14:05:06;14.29;95.75
66144;SHT31;52947;50.842;6.084;2023-08-06T14:07:34;14.22;95.54
66144;SHT31;52947;50.842;6.084;2023-08-06T14:10:03;14.18;95.87
66144;SHT31;52947;50.842;6.084;2023-08-06T14:12:32;14.14;95.74
66144;SHT31;52947;50.842;6.084;2023-08-06T14:15:00;14.11;95.91
66144;SHT31;52947;50.842;6.084;2023-08-06T14:17:29;14.11;96.25
66144;SHT31;52947;50.842;6.084;2023-08-06T14:19:57;14.18;96.02
66144;SHT31;52947;50.842;6.084;2023-08-06T14:22:27;14.13;95.84
66144;SHT31;52947;50.842;6.084;2023-08-06T14:24:57;14.14;95.92
66144;SHT31;52947;50.842;6.084;2023-08-06T14:27:25;14.14;95.94
66144;SHT31;52947;50.842;6.084;2023-08-06T14:29:54;14.11;95.91
66144;SHT31;52947;50.842;6.084;2023-08-06T14:32:22;14.20;95.93
66144;SHT31;52947;50.842;6.084;2023-08-06T14:34:50;14.38;95.33
66144;SHT31;52947;50.842;6.084;2023-08-06T14:37:18;14.54;95.16
66144;SHT31;52947;50.842;6.084;2023-08-06T14:39:46;14.75;94.41
66144;SHT31;52947;50.842;6.084;2023-08-06T14:42:14;14.69;94.22
66144;SHT31;52947;50.842;6.084;2023-08-06T14:44:42;14.56;94.39
66144;SHT31;52947;50.842;6.084;2023-08-06T14:47:11;14.46;94.63
66144;SHT31;52947;50.842;6.084;2023-08-06T14:49:39;14.42;94.86
66144;SHT31;52947;50.842;6.084;2023-08-06T14:52:07;14.46;94.91
66144;SHT31;52947;50.842;6.084;2023-08-06T14:54:35;14.39;95.24
66144;SHT31;52947;50.842;6.084;2023-08-06T14:57:04;14.29;95.22
66144;SHT31;52947;50.842;6.084;2023-08-06T14:59:31;14.26;95.79
66144;SHT31;52947;50.842;6.084;2023-08-06T15:01:59;14.17;95.82
66144;SHT31;52947;50.842;6.084;2023-08-06T15:04:29;14.13;96.00
66144;SHT31;52947;50.842;6.084;2023-08-06T15:06:57;14.18;96.19
66144;SHT31;52947;50.842;6.084;2023-08-06T15:09:25;14.31;95.74
66144;SHT31;52947;50.842;6.084;2023-08-06T15:11:53;14.22;95.97
66144;SHT31;52947;50.842;6.084;2023-08-06T15:14:21;14.21;95.86
66144;SHT31;52947;50.842;6.084;2023-08-06T15:16:48;14.17;95.79
66144;SHT31;52947;50.842;6.084;2023-08-06T15:19:18;14.14;96.16
66144;SHT31;52947;50.842;6.084;2023-08-06T15:21:48;14.07;95.82
66144;SHT31;52947;50.842;6.084;2023-08-06T15:24:15;14.07;96.10
66144;SHT31;52947;50.842;6.084;2023-08-06T15:26:43;14.13;95.75
66144;SHT31;52947;50.842;6.084;2023-08-06T15:29:11;14.15;95.73
66144;SHT31;52947;50.842;6.084;2023-08-06T15:31:39;14.14;95.67
66144;SHT31;52947;50.842;6.084;2023-08-06T15:34:08;14.13;95.73
66144;SHT31;52947;50.842;6.084;2023-08-06T15:36:36;14.15;95.88
66144;SHT31;52947;50.842;6.084;2023-08-06T15:39:06;14.32;95.74
66144;SHT31;52947;50.842;6.084;2023-08-06T15:41:33;14.21;95.09